sensor_id;sensor_type;location;lat;lon;timestamp;temperature;humidity
6756;DHT22;3415;51.148;7.014;2023-04-01T00:02:03;9.50;1.00
6756;DHT22;3415;51.148;7.014;2023-04-01T00:04:31;9.60;1.00
6756;DHT22;3415;51.148;7.014;2023-04-01T00:06:58;9.50;1.00
6756;DHT22;3415;51.148;7.014;2023-04-01T00:09:25;9.50;1.00
6756;DHT22;3415;51.148;7.014;2023-04-01T00:11:52;9.50;1.00
6756;DHT22;3415;51.148;7.014;2023-04-01T00:14:19;9.50;1.00
6756;DHT22;3415;51.148;7.014;2023-04-01T00:16:46;9.50;1.00
6756;DHT22;3415;51.148;7.014;2023-04-01T00:19:13;9.50;1.00
6756;DHT22;3415;51.148;7.014;2023-04-01T00:21:41;9.60;1.00
6756;DHT22;3415;51.148;7.014;2023-04-01T00:24:08;9.60;1.00
6756;DHT22;3415;51.148;7.014;2023-04-01T00:26:35;9.50;1.00
6756;DHT22;3415;51.148;7.014;2023-04-01T00:29:02;9.50;1.00
6756;DHT22;3415;51.148;7.014;2023-04-01T00:31:29;9.50;1.00
6756;DHT22;3415;51.148;7.014;2023-04-01T00:33:56;9.50;1.00
6756;DHT22;3415;51.148;7.014;2023-04-01T00:36:23;9.60;1.00
6756;DHT22;3415;51.148;7.014;2023-04-01T00:38:51;9.60;1.00
6756;DHT22;3415;51.148;7.014;2023-04-01T00:41:19;9.60;1.00
6756;DHT22;3415;51.148;7.014;2023-04-01T00:43:48;9.60;1.00
6756;DHT22;3415;51.148;7.014;2023-04-01T00:46:15;9.70;1.00
6756;DHT22;3415;51.148;7.014;2023-04-01T00:48:45;9.60;1.00
6756;DHT22;3415;51.148;7.014;2023-04-01T00:51:15;9.70;1.00
6756;DHT22;3415;51.148;7.014;2023-04-01T00:53:47;9.60;1.00
6756;DHT22;3415;51.148;7.014;2023-04-01T00:56:18;9.70;1.00
6756;DHT22;3415;51.148;7.014;2023-04-01T00:58:49;9.70;1.00
6756;DHT22;3415;51.148;7.014;2023-04-01T01:01:18;9.70;1.00
6756;DHT22;3415;51.148;7.014;2023-04-01T01:03:46;9.60;1.00
6756;DHT22;3415;51.148;7.014;2023-04-01T01:06:25;9.60;1.00
6756;DHT22;3415;51.148;7.014;2023-04-01T01:09:14;9.60;1.00
6756;DHT22;3415;51.148;7.014;2023-04-01T01:12:02;9.60;1.00
6756;DHT22;3415;51.148;7.014;2023-04-01T01:14:43;9.70;1.00
6756;DHT22;3415;51.148;7.014;2023-04-01T01:17:18;9.70;1.00
6756;DHT22;3415;51.148;7.014;2023-04-01T01:19:58;10.00;1.00
6756;DHT22;3415;51.148;7.014;2023-04-01T01:22:50;9.70;1.00
6756;DHT22;3415;51.148;7.014;2023-04-01T01:25:30;9.70;1.00
6756;DHT22;3415;51.148;7.014;2023-04-01T01:28:14;9.70;1.00
6756;DHT22;3415;51.148;7.014;2023-04-01T01:30:52;9.70;1.00
6756;DHT22;3415;51.148;7.014;2023-04-01T01:33:45;9.60;1.00
6756;DHT22;3415;51.148;7.014;2023-04-01T01:36:18;9.50;1.00
6756;DHT22;3415;51.148;7.014;2023-04-01T01:38:47;9.50;1.00
6756;DHT22;3415;51.148;7.014;2023-04-01T01:41:16;9.50;1.00
6756;DHT22;3415;51.148;7.014;2023-04-01T01:43:47;9.50;1.00
6756;DHT22;3415;51.148;7.014;2023-04-01T01:46:18;9.50;1.00
6756;DHT22;3415;51.148;7.014;2023-04-01T01:48:47;9.40;1.00
6756;DHT22;3415;51.148;7.014;2023-04-01T01:51:17;9.40;1.00
6756;DHT22;3415;51.148;7.014;2023-04-01T01:53:44;9.40;1.00
6756;DHT22;3415;51.148;7.014;2023-04-01T01:56:11;9.50;1.00
6756;DHT22;3415;51.148;7.014;2023-04-01T01:58:41;9.40;1.00
6756;DHT22;3415;51.148;7.014;2023-04-01T02:01:12;9.40;1.00
6756;DHT22;3415;51.148;7.014;2023-04-01T02:03:40;9.40;1.00
6756;DHT22;3415;51.148;7.014;2023-04-01T02:06:13;9.40;1.00
6756;DHT22;3415;51.148;7.014;2023-04-01T02:08:45;9.40;1.00
6756;DHT22;3415;51.148;7.014;2023-04-01T02:11:16;9.40;1.00
6756;DHT22;3415;51.148;7.014;2023-04-01T02:13:49;9.30;1.00
6756;DHT22;3415;51.148;7.014;2023-04-01T02:16:21;9.30;1.00
6756;DHT22;3415;51.148;7.014;2023-04-01T02:18:51;9.20;1.00
6756;DHT22;3415;51.148;7.014;2023-04-01T02:21:22;9.20;1.00
6756;DHT22;3415;51.148;7.014;2023-04-01T02:23:53;9.20;3.70
6756;DHT22;3415;51.148;7.014;2023-04-01T02:26:21;9.10;12.10
6756;DHT22;3415;51.148;7.014;2023-04-01T02:28:51;10.50;16.40
6756;DHT22;3415;51.148;7.014;2023-04-01T02:31:19;9.10;51.70
6756;DHT22;3415;51.148;7.014;2023-04-01T02:33:46;9.10;87.70
6756;DHT22;3415;51.148;7.014;2023-04-01T02:36:14;9.20;98.00
6756;DHT22;3415;51.148;7.014;2023-04-01T02:38:43;9.10;79.00
6756;DHT22;3415;51.148;7.014;2023-04-01T02:41:12;9.00;80.10
6756;DHT22;3415;51.148;7.014;2023-04-01T02:43:39;9.00;92.80
6756;DHT22;3415;51.148;7.014;2023-04-01T02:46:06;9.00;91.40
6756;DHT22;3415;51.148;7.014;2023-04-01T02:48:33;9.00;87.00
6756;DHT22;3415;51.148;7.014;2023-04-01T02:51:01;9.00;92.30
6756;DHT22;3415;51.148;7.014;2023-04-01T02:53:28;8.90;99.90
6756;DHT22;3415;51.148;7.014;2023-04-01T02:55:54;8.90;99.90
6756;DHT22;3415;51.148;7.014;2023-04-01T02:58:23;8.90;99.90
6756;DHT22;3415;51.148;7.014;2023-04-01T03:00:49;8.90;99.90
6756;DHT22;3415;51.148;7.014;2023-04-01T03:03:17;8.80;99.90
6756;DHT22;3415;51.148;7.014;2023-04-01T03:05:44;8.80;99.90
6756;DHT22;3415;51.148;7.014;2023-04-01T03:08:10;8.80;99.90
6756;DHT22;3415;51.148;7.014;2023-04-01T03:10:37;8.80;99.90
6756;DHT22;3415;51.148;7.014;2023-04-01T03:13:04;8.70;99.90
6756;DHT22;3415;51.148;7.014;2023-04-01T03:15:33;8.70;99.90
6756;DHT22;3415;51.148;7.014;2023-04-01T03:17:59;8.70;99.90
6756;DHT22;3415;51.148;7.014;2023-04-01T03:20:26;8.70;99.90
6756;DHT22;3415;51.148;7.014;2023-04-01T03:22:53;8.70;99.90
6756;DHT22;3415;51.148;7.014;2023-04-01T03:25:20;8.80;99.90
6756;DHT22;3415;51.148;7.014;2023-04-01T03:27:47;8.80;99.90
6756;DHT22;3415;51.148;7.014;2023-04-01T03:30:14;8.80;99.90
6756;DHT22;3415;51.148;7.014;2023-04-01T03:32:42;8.90;99.90
6756;DHT22;3415;51.148;7.014;2023-04-01T03:35:09;8.80;99.90
6756;DHT22;3415;51.148;7.014;2023-04-01T03:37:36;8.80;99.90
6756;DHT22;3415;51.148;7.014;2023-04-01T03:40:04;8.80;99.90
6756;DHT22;3415;51.148;7.014;2023-04-01T03:42:31;8.80;99.90
6756;DHT22;3415;51.148;7.014;2023-04-01T03:44:58;8.80;99.90
6756;DHT22;3415;51.148;7.014;2023-04-01T03:47:25;8.80;99.90
6756;DHT22;3415;51.148;7.014;2023-04-01T03:49:53;8.90;99.90
6756;DHT22;3415;51.148;7.014;2023-04-01T03:52:20;8.90;99.90
6756;DHT22;3415;51.148;7.014;2023-04-01T03:54:47;8.90;99.90
6756;DHT22;3415;51.148;7.014;2023-04-01T03:57:14;8.90;99.90
6756;DHT22;3415;51.148;7.014;2023-04-01T03:59:41;9.00;99.90
6756;DHT22;3415;51.148;7.014;2023-04-01T04:02:08;8.90;99.90
6756;DHT22;3415;51.148;7.014;2023-04-01T04:04:35;8.90;99.90
6756;DHT22;3415;51.148;7.014;2023-04-01T04:07:03;8.90;99.90
6756;DHT22;3415;51.148;7.014;2023-04-01T04:09:30;8.90;99.90
6756;DHT22;3415;51.148;7.014;2023-04-01T04:11:57;8.90;99.90
6756;DHT22;3415;51.148;7.014;2023-04-01T04:14:23;8.90;99.90
6756;DHT22;3415;51.148;7.014;2023-04-01T04:16:50;8.90;99.90
6756;DHT22;3415;51.148;7.014;2023-04-01T04:19:17;8.90;99.90
6756;DHT22;3415;51.148;7.014;2023-04-01T04:21:44;8.90;99.90
6756;DHT22;3415;51.148;7.014;2023-04-01T04:24:12;8.90;99.90
6756;DHT22;3415;51.148;7.014;2023-04-01T04:26:39;8.90;99.90
6756;DHT22;3415;51.148;7.014;2023-04-01T04:29:06;8.90;99.90
6756;DHT22;3415;51.148;7.014;2023-04-01T04:31:33;8.90;99.90
6756;DHT22;3415;51.148;7.014;2023-04-01T04:34:00;8.90;99.90
6756;DHT22;3415;51.148;7.014;2023-04-01T04:36:27;8.90;99.90
6756;DHT22;3415;51.148;7.014;2023-04-01T04:38:54;8.90;99.90
6756;DHT22;3415;51.148;7.014;2023-04-01T04:41:22;8.90;99.90
6756;DHT22;3415;51.148;7.014;2023-04-01T04:43:50;8.90;99.90
6756;DHT22;3415;51.148;7.014;2023-04-01T04:46:18;8.90;99.90
6756;DHT22;3415;51.148;7.014;2023-04-01T04:48:45;8.90;99.90
6756;DHT22;3415;51.148;7.014;2023-04-01T04:51:16;8.90;99.90
6756;DHT22;3415;51.148;7.014;2023-04-01T04:53:43;8.90;99.90
6756;DHT22;3415;51.148;7.014;2023-04-01T04:56:10;8.90;99.90
6756;DHT22;3415;51.148;7.014;2023-04-01T04:58:39;8.90;99.90
6756;DHT22;3415;51.148;7.014;2023-04-01T05:01:08;8.90;99.90
6756;DHT22;3415;51.148;7.014;2023-04-01T05:03:35;8.90;99.90
6756;DHT22;3415;51.148;7.014;2023-04-01T05:06:02;8.90;99.90
6756;DHT22;3415;51.148;7.014;2023-04-01T05:08:28;8.90;99.90
6756;DHT22;3415;51.148;7.014;2023-04-01T05:10:55;8.90;99.90
6756;DHT22;3415;51.148;7.014;2023-04-01T05:13:22;9.00;99.90
6756;DHT22;3415;51.148;7.014;2023-04-01T05:15:50;8.90;99.90
6756;DHT22;3415;51.148;7.014;2023-04-01T05:18:17;8.90;99.90
6756;DHT22;3415;51.148;7.014;2023-04-01T05:20:48;8.90;99.90
6756;DHT22;3415;51.148;7.014;2023-04-01T05:23:15;8.90;99.90
6756;DHT22;3415;51.148;7.014;2023-04-01T05:25:42;8.90;99.90
6756;DHT22;3415;51.148;7.014;2023-04-01T05:28:10;8.90;99.90
6756;DHT22;3415;51.148;7.014;2023-04-01T05:30:39;8.90;99.90
6756;DHT22;3415;51.148;7.014;2023-04-01T05:33:08;8.90;99.90
6756;DHT22;3415;51.148;7.014;2023-04-01T05:35:35;8.90;99.90
6756;DHT22;3415;51.148;7.014;2023-04-01T05:38:02;8.90;99.90
6756;DHT22;3415;51.148;7.014;2023-04-01T05:40:29;8.90;99.90
6756;DHT22;3415;51.148;7.014;2023-04-01T05:42:56;9.00;1.00
6756;DHT22;3415;51.148;7.014;2023-04-01T05:45:23;8.90;1.00
6756;DHT22;3415;51.148;7.014;2023-04-01T05:47:50;9.00;1.00
6756;DHT22;3415;51.148;7.014;2023-04-01T05:50:18;9.00;1.00
6756;DHT22;3415;51.148;7.014;2023-04-01T05:52:45;9.00;1.00
6756;DHT22;3415;51.148;7.014;2023-04-01T05:55:12;9.00;1.00
6756;DHT22;3415;51.148;7.014;2023-04-01T05:57:39;9.00;1.00
6756;DHT22;3415;51.148;7.014;2023-04-01T06:00:07;9.00;1.00
6756;DHT22;3415;51.148;7.014;2023-04-01T06:02:34;9.10;1.00
6756;DHT22;3415;51.148;7.014;2023-04-01T06:05:10;9.00;1.00
6756;DHT22;3415;51.148;7.014;2023-04-01T06:07:39;9.00;1.00
6756;DHT22;3415;51.148;7.014;2023-04-01T06:10:12;9.10;1.00
6756;DHT22;3415;51.148;7.014;2023-04-01T06:12:55;9.10;1.00
6756;DHT22;3415;51.148;7.014;2023-04-01T06:15:35;9.10;1.00
6756;DHT22;3415;51.148;7.014;2023-04-01T06:18:19;9.10;1.00
6756;DHT22;3415;51.148;7.014;2023-04-01T06:20:53;9.10;1.00
6756;DHT22;3415;51.148;7.014;2023-04-01T06:23:32;9.10;1.00
6756;DHT22;3415;51.148;7.014;2023-04-01T06:26:22;9.10;1.00
6756;DHT22;3415;51.148;7.014;2023-04-01T06:32:06;9.10;1.00
6756;DHT22;3415;51.148;7.014;2023-04-01T06:37:55;9.10;1.00
6756;DHT22;3415;51.148;7.014;2023-04-01T06:40:40;9.10;1.00
6756;DHT22;3415;51.148;7.014;2023-04-01T06:43:17;9.10;1.00
6756;DHT22;3415;51.148;7.014;2023-04-01T06:45:51;9.10;1.00
6756;DHT22;3415;51.148;7.014;2023-04-01T06:48:38;9.10;1.00
6756;DHT22;3415;51.148;7.014;2023-04-01T06:51:12;9.10;1.00
6756;DHT22;3415;51.148;7.014;2023-04-01T06:53:47;9.20;1.00
6756;DHT22;3415;51.148;7.014;2023-04-01T06:56:24;9.20;1.00
6756;DHT22;3415;51.148;7.014;2023-04-01T06:58:53;9.30;1.00
6756;DHT22;3415;51.148;7.014;2023-04-01T07:01:23;9.20;1.00
6756;DHT22;3415;51.148;7.014;2023-04-01T07:03:55;9.20;1.00
6756;DHT22;3415;51.148;7.014;2023-04-01T07:06:26;9.20;1.00
6756;DHT22;3415;51.148;7.014;2023-04-01T07:08:56;9.20;1.00
6756;DHT22;3415;51.148;7.014;2023-04-01T07:11:30;9.20;1.00
6756;DHT22;3415;51.148;7.014;2023-04-01T07:14:01;9.20;1.00
6756;DHT22;3415;51.148;7.014;2023-04-01T07:16:30;9.20;1.00
6756;DHT22;3415;51.148;7.014;2023-04-01T07:19:02;9.20;1.00
6756;DHT22;3415;51.148;7.014;2023-04-01T07:21:34;9.20;1.00
6756;DHT22;3415;51.148;7.014;2023-04-01T07:24:06;9.20;1.00
6756;DHT22;3415;51.148;7.014;2023-04-01T07:26:37;9.20;1.00
6756;DHT22;3415;51.148;7.014;2023-04-01T07:29:05;9.20;1.00
6756;DHT22;3415;51.148;7.014;2023-04-01T07:31:56;9.30;1.00
6756;DHT22;3415;51.148;7.014;2023-04-01T07:34:26;9.20;1.00
6756;DHT22;3415;51.148;7.014;2023-04-01T07:36:58;9.40;1.00
6756;DHT22;3415;51.148;7.014;2023-04-01T07:39:36;9.30;1.00
6756;DHT22;3415;51.148;7.014;2023-04-01T07:42:15;9.20;1.00
6756;DHT22;3415;51.148;7.014;2023-04-01T07:44:50;9.30;1.00
6756;DHT22;3415;51.148;7.014;2023-04-01T07:47:50;9.30;1.00
6756;DHT22;3415;51.148;7.014;2023-04-01T07:50:26;9.30;1.00
6756;DHT22;3415;51.148;7.014;2023-04-01T07:53:03;9.40;1.00
6756;DHT22;3415;51.148;7.014;2023-04-01T07:55:39;9.40;1.00
6756;DHT22;3415;51.148;7.014;2023-04-01T07:58:13;9.40;1.00
6756;DHT22;3415;51.148;7.014;2023-04-01T08:00:45;9.40;1.00
6756;DHT22;3415;51.148;7.014;2023-04-01T08:03:24;9.40;1.00
6756;DHT22;3415;51.148;7.014;2023-04-01T08:05:58;9.40;1.00
6756;DHT22;3415;51.148;7.014;2023-04-01T08:08:36;9.40;1.00
6756;DHT22;3415;51.148;7.014;2023-04-01T08:11:14;9.40;1.00
6756;DHT22;3415;51.148;7.014;2023-04-01T08:13:53;9.40;1.00
6756;DHT22;3415;51.148;7.014;2023-04-01T08:16:29;9.40;1.00
6756;DHT22;3415;51.148;7.014;2023-04-01T08:19:03;9.50;1.00
6756;DHT22;3415;51.148;7.014;2023-04-01T08:21:41;9.40;1.00
6756;DHT22;3415;51.148;7.014;2023-04-01T08:24:16;9.60;1.00
6756;DHT22;3415;51.148;7.014;2023-04-01T08:26:48;9.40;1.00
6756;DHT22;3415;51.148;7.014;2023-04-01T08:29:21;9.40;1.00
6756;DHT22;3415;51.148;7.014;2023-04-01T08:31:53;9.40;1.00
6756;DHT22;3415;51.148;7.014;2023-04-01T08:34:25;9.50;1.00
6756;DHT22;3415;51.148;7.014;2023-04-01T08:36:58;9.40;1.00
6756;DHT22;3415;51.148;7.014;2023-04-01T08:39:29;9.50;1.00
6756;DHT22;3415;51.148;7.014;2023-04-01T08:42:23;9.50;1.00
6756;DHT22;3415;51.148;7.014;2023-04-01T08:48:38;9.60;1.00
6756;DHT22;3415;51.148;7.014;2023-04-01T08:54:33;9.50;1.00
6756;DHT22;3415;51.148;7.014;2023-04-01T08:57:06;9.50;1.00
6756;DHT22;3415;51.148;7.014;2023-04-01T08:59:50;9.50;1.00
6756;DHT22;3415;51.148;7.014;2023-04-01T09:02:38;9.60;1.00
6756;DHT22;3415;51.148;7.014;2023-04-01T09:05:35;9.60;1.00
6756;DHT22;3415;51.148;7.014;2023-04-01T09:08:12;9.50;1.00
6756;DHT22;3415;51.148;7.014;2023-04-01T09:10:57;9.60;1.00
6756;DHT22;3415;51.148;7.014;2023-04-01T09:13:48;9.50;1.00
6756;DHT22;3415;51.148;7.014;2023-04-01T09:16:38;9.60;1.00
6756;DHT22;3415;51.148;7.014;2023-04-01T09:19:23;9.60;1.00
6756;DHT22;3415;51.148;7.014;2023-04-01T09:22:12;9.60;1.00
6756;DHT22;3415;51.148;7.014;2023-04-01T09:24:56;9.60;1.00
6756;DHT22;3415;51.148;7.014;2023-04-01T09:27:28;9.60;1.00
6756;DHT22;3415;51.148;7.014;2023-04-01T09:33:15;9.80;1.00
6756;DHT22;3415;51.148;7.014;2023-04-01T09:35:47;9.80;1.00
6756;DHT22;3415;51.148;7.014;2023-04-01T09:38:22;9.70;1.00
6756;DHT22;3415;51.148;7.014;2023-04-01T09:40:55;9.80;1.00
6756;DHT22;3415;51.148;7.014;2023-04-01T09:43:26;9.80;1.00
6756;DHT22;3415;51.148;7.014;2023-04-01T09:46:07;9.70;1.00
6756;DHT22;3415;51.148;7.014;2023-04-01T09:48:52;9.60;1.00
6756;DHT22;3415;51.148;7.014;2023-04-01T09:51:31;9.60;1.00
6756;DHT22;3415;51.148;7.014;2023-04-01T09:54:13;9.60;1.00
6756;DHT22;3415;51.148;7.014;2023-04-01T09:57:14;9.60;1.00
6756;DHT22;3415;51.148;7.014;2023-04-01T10:00:20;9.60;1.00
6756;DHT22;3415;51.148;7.014;2023-04-01T10:12:29;9.70;1.00
6756;DHT22;3415;51.148;7.014;2023-04-01T10:21:25;9.80;1.00
6756;DHT22;3415;51.148;7.014;2023-04-01T10:24:25;9.80;1.00
6756;DHT22;3415;51.148;7.014;2023-04-01T10:27:16;9.90;1.00
6756;DHT22;3415;51.148;7.014;2023-04-01T10:30:05;9.90;1.00
6756;DHT22;3415;51.148;7.014;2023-04-01T10:42:43;10.00;1.00
6756;DHT22;3415;51.148;7.014;2023-04-01T10:48:43;9.90;1.00
6756;DHT22;3415;51.148;7.014;2023-04-01T10:51:30;9.90;1.00
6756;DHT22;3415;51.148;7.014;2023-04-01T10:57:21;10.00;1.00
6756;DHT22;3415;51.148;7.014;2023-04-01T11:00:08;9.90;1.00
6756;DHT22;3415;51.148;7.014;2023-04-01T11:09:19;9.90;1.00
6756;DHT22;3415;51.148;7.014;2023-04-01T11:18:41;9.80;1.00
6756;DHT22;3415;51.148;7.014;2023-04-01T11:21:39;9.90;1.00
6756;DHT22;3415;51.148;7.014;2023-04-01T11:24:26;9.90;1.00
6756;DHT22;3415;51.148;7.014;2023-04-01T11:27:08;10.10;1.00
6756;DHT22;3415;51.148;7.014;2023-04-01T11:29:49;10.50;1.00
6756;DHT22;3415;51.148;7.014;2023-04-01T11:32:37;10.00;1.00
6756;DHT22;3415;51.148;7.014;2023-04-01T11:35:23;10.10;1.00
6756;DHT22;3415;51.148;7.014;2023-04-01T11:37:59;10.20;1.00
6756;DHT22;3415;51.148;7.014;2023-04-01T11:40:33;10.30;1.00
6756;DHT22;3415;51.148;7.014;2023-04-01T11:43:08;10.30;1.00
6756;DHT22;3415;51.148;7.014;2023-04-01T11:45:42;10.30;1.00
6756;DHT22;3415;51.148;7.014;2023-04-01T11:48:20;10.20;1.00
6756;DHT22;3415;51.148;7.014;2023-04-01T11:51:02;10.20;1.00
6756;DHT22;3415;51.148;7.014;2023-04-01T11:53:41;10.10;1.00
6756;DHT22;3415;51.148;7.014;2023-04-01T11:56:18;10.10;1.00
6756;DHT22;3415;51.148;7.014;2023-04-01T11:59:02;10.00;1.00
6756;DHT22;3415;51.148;7.014;2023-04-01T12:01:48;10.00;1.00
6756;DHT22;3415;51.148;7.014;2023-04-01T12:07:26;10.00;1.00
6756;DHT22;3415;51.148;7.014;2023-04-01T12:10:03;10.00;1.00
6756;DHT22;3415;51.148;7.014;2023-04-01T12:12:36;10.00;1.00
6756;DHT22;3415;51.148;7.014;2023-04-01T12:15:17;10.10;1.00
6756;DHT22;3415;51.148;7.014;2023-04-01T12:17:50;10.10;1.00
6756;DHT22;3415;51.148;7.014;2023-04-01T12:20:36;10.10;1.00
6756;DHT22;3415;51.148;7.014;2023-04-01T12:23:16;10.20;1.00
6756;DHT22;3415;51.148;7.014;2023-04-01T12:26:04;10.10;1.00
6756;DHT22;3415;51.148;7.014;2023-04-01T12:28:41;10.20;1.00
6756;DHT22;3415;51.148;7.014;2023-04-01T12:31:21;10.10;1.00
6756;DHT22;3415;51.148;7.014;2023-04-01T12:33:59;10.10;1.00
6756;DHT22;3415;51.148;7.014;2023-04-01T12:36:38;10.10;1.00
6756;DHT22;3415;51.148;7.014;2023-04-01T12:39:29;10.10;1.00
6756;DHT22;3415;51.148;7.014;2023-04-01T12:42:05;10.20;1.00
6756;DHT22;3415;51.148;7.014;2023-04-01T12:44:52;10.30;1.00
6756;DHT22;3415;51.148;7.014;2023-04-01T12:50:28;10.30;1.00
6756;DHT22;3415;51.148;7.014;2023-04-01T12:53:11;10.40;1.00
6756;DHT22;3415;51.148;7.014;2023-04-01T12:55:45;10.40;1.00
6756;DHT22;3415;51.148;7.014;2023-04-01T12:58:47;10.50;1.00
6756;DHT22;3415;51.148;7.014;2023-04-01T13:01:37;10.50;1.00
6756;DHT22;3415;51.148;7.014;2023-04-01T13:07:23;10.50;1.00
6756;DHT22;3415;51.148;7.014;2023-04-01T13:10:02;10.50;1.00
6756;DHT22;3415;51.148;7.014;2023-04-01T13:12:46;10.60;1.00
6756;DHT22;3415;51.148;7.014;2023-04-01T13:15:24;10.60;1.00
6756;DHT22;3415;51.148;7.014;2023-04-01T13:17:58;10.60;1.00
6756;DHT22;3415;51.148;7.014;2023-04-01T13:20:41;10.60;1.00
6756;DHT22;3415;51.148;7.014;2023-04-01T13:23:19;10.70;1.00
6756;DHT22;3415;51.148;7.014;2023-04-01T13:25:57;10.80;1.00
6756;DHT22;3415;51.148;7.014;2023-04-01T13:28:27;10.70;1.00
6756;DHT22;3415;51.148;7.014;2023-04-01T13:31:01;10.60;1.00
6756;DHT22;3415;51.148;7.014;2023-04-01T13:33:33;10.60;1.00
6756;DHT22;3415;51.148;7.014;2023-04-01T13:36:14;10.50;1.00
6756;DHT22;3415;51.148;7.014;2023-04-01T13:38:56;10.30;1.00
6756;DHT22;3415;51.148;7.014;2023-04-01T13:41:35;10.30;1.00
6756;DHT22;3415;51.148;7.014;2023-04-01T13:44:11;10.40;1.00
6756;DHT22;3415;51.148;7.014;2023-04-01T13:46:54;10.40;1.00
6756;DHT22;3415;51.148;7.014;2023-04-01T13:49:48;10.50;1.00
6756;DHT22;3415;51.148;7.014;2023-04-01T13:55:26;10.50;1.00
6756;DHT22;3415;51.148;7.014;2023-04-01T13:58:29;10.50;1.00
6756;DHT22;3415;51.148;7.014;2023-04-01T14:01:06;10.60;1.00
6756;DHT22;3415;51.148;7.014;2023-04-01T14:06:35;10.60;1.00
6756;DHT22;3415;51.148;7.014;2023-04-01T14:12:20;10.50;1.00
6756;DHT22;3415;51.148;7.014;2023-04-01T14:15:07;10.50;1.00
6756;DHT22;3415;51.148;7.014;2023-04-01T14:17:54;10.50;1.00
6756;DHT22;3415;51.148;7.014;2023-04-01T14:20:34;10.50;1.00
6756;DHT22;3415;51.148;7.014;2023-04-01T14:23:16;10.50;1.00
6756;DHT22;3415;51.148;7.014;2023-04-01T14:26:18;10.50;1.00
6756;DHT22;3415;51.148;7.014;2023-04-01T14:28:55;10.40;1.00
6756;DHT22;3415;51.148;7.014;2023-04-01T14:31:41;10.40;99.90
6756;DHT22;3415;51.148;7.014;2023-04-01T14:34:19;10.40;1.00
6756;DHT22;3415;51.148;7.014;2023-04-01T14:37:05;10.40;1.00
6756;DHT22;3415;51.148;7.014;2023-04-01T14:39:58;10.40;1.00
6756;DHT22;3415;51.148;7.014;2023-04-01T14:42:44;10.30;1.00
6756;DHT22;3415;51.148;7.014;2023-04-01T14:45:51;10.30;99.90
6756;DHT22;3415;51.148;7.014;2023-04-01T14:48:28;10.40;99.90
6756;DHT22;3415;51.148;7.014;2023-04-01T14:51:03;10.40;99.90
6756;DHT22;3415;51.148;7.014;2023-04-01T14:53:38;10.30;99.90
6756;DHT22;3415;51.148;7.014;2023-04-01T14:56:07;10.40;1.00
6756;DHT22;3415;51.148;7.014;2023-04-01T14:58:43;10.40;1.00
6756;DHT22;3415;51.148;7.014;2023-04-01T15:01:25;10.50;1.00
6756;DHT22;3415;51.148;7.014;2023-04-01T15:04:08;10.40;99.90
6756;DHT22;3415;51.148;7.014;2023-04-01T15:07:00;10.40;99.90
6756;DHT22;3415;51.148;7.014;2023-04-01T15:09:36;10.50;99.90
6756;DHT22;3415;51.148;7.014;2023-04-01T15:12:16;10.30;99.90
6756;DHT22;3415;51.148;7.014;2023-04-01T15:20:55;10.60;99.90
6756;DHT22;3415;51.148;7.014;2023-04-01T15:23:34;10.70;99.90
6756;DHT22;3415;51.148;7.014;2023-04-01T15:26:21;10.70;99.90
6756;DHT22;3415;51.148;7.014;2023-04-01T15:28:58;10.60;99.90
6756;DHT22;3415;51.148;7.014;2023-04-01T15:31:32;10.50;99.90
6756;DHT22;3415;51.148;7.014;2023-04-01T15:34:16;10.50;99.90
6756;DHT22;3415;51.148;7.014;2023-04-01T15:36:50;10.50;99.90
6756;DHT22;3415;51.148;7.014;2023-04-01T15:39:22;10.50;99.90
6756;DHT22;3415;51.148;7.014;2023-04-01T15:42:12;12.40;99.90
6756;DHT22;3415;51.148;7.014;2023-04-01T15:44:50;10.40;99.90
6756;DHT22;3415;51.148;7.014;2023-04-01T15:47:35;10.30;99.90
6756;DHT22;3415;51.148;7.014;2023-04-01T15:53:23;10.30;99.90
6756;DHT22;3415;51.148;7.014;2023-04-01T15:55:57;10.30;99.90
6756;DHT22;3415;51.148;7.014;2023-04-01T15:58:42;10.30;99.90
6756;DHT22;3415;51.148;7.014;2023-04-01T16:01:19;10.30;99.90
6756;DHT22;3415;51.148;7.014;2023-04-01T16:03:53;10.30;99.90
6756;DHT22;3415;51.148;7.014;2023-04-01T16:06:32;10.30;99.90
6756;DHT22;3415;51.148;7.014;2023-04-01T16:09:13;10.20;99.90
6756;DHT22;3415;51.148;7.014;2023-04-01T16:11:50;10.10;99.90
6756;DHT22;3415;51.148;7.014;2023-04-01T16:14:31;10.10;99.90
6756;DHT22;3415;51.148;7.014;2023-04-01T16:17:20;10.20;99.90
6756;DHT22;3415;51.148;7.014;2023-04-01T16:19:55;10.10;99.90
6756;DHT22;3415;51.148;7.014;2023-04-01T16:22:26;10.10;99.90
6756;DHT22;3415;51.148;7.014;2023-04-01T16:24:58;10.00;99.90
6756;DHT22;3415;51.148;7.014;2023-04-01T16:27:32;10.20;99.90
6756;DHT22;3415;51.148;7.014;2023-04-01T16:30:23;10.10;99.90
6756;DHT22;3415;51.148;7.014;2023-04-01T16:32:54;10.00;99.90
6756;DHT22;3415;51.148;7.014;2023-04-01T16:35:30;9.90;1.00
6756;DHT22;3415;51.148;7.014;2023-04-01T16:38:07;9.90;1.00
6756;DHT22;3415;51.148;7.014;2023-04-01T16:40:42;9.90;1.00
6756;DHT22;3415;51.148;7.014;2023-04-01T16:43:16;9.90;1.00
6756;DHT22;3415;51.148;7.014;2023-04-01T16:45:55;9.90;1.00
6756;DHT22;3415;51.148;7.014;2023-04-01T16:48:34;9.80;1.00
6756;DHT22;3415;51.148;7.014;2023-04-01T16:51:07;9.80;1.00
6756;DHT22;3415;51.148;7.014;2023-04-01T16:53:41;9.80;1.00
6756;DHT22;3415;51.148;7.014;2023-04-01T16:56:12;9.80;1.00
6756;DHT22;3415;51.148;7.014;2023-04-01T16:58:46;9.90;1.00
6756;DHT22;3415;51.148;7.014;2023-04-01T17:01:21;9.80;1.00
6756;DHT22;3415;51.148;7.014;2023-04-01T17:03:52;9.80;1.00
6756;DHT22;3415;51.148;7.014;2023-04-01T17:06:31;9.80;1.00
6756;DHT22;3415;51.148;7.014;2023-04-01T17:09:13;9.70;1.00
6756;DHT22;3415;51.148;7.014;2023-04-01T17:11:51;9.80;1.00
6756;DHT22;3415;51.148;7.014;2023-04-01T17:14:23;9.80;1.00
6756;DHT22;3415;51.148;7.014;2023-04-01T17:17:04;9.70;1.00
6756;DHT22;3415;51.148;7.014;2023-04-01T17:19:46;9.80;1.00
6756;DHT22;3415;51.148;7.014;2023-04-01T17:22:25;9.70;1.00
6756;DHT22;3415;51.148;7.014;2023-04-01T17:25:04;9.80;1.00
6756;DHT22;3415;51.148;7.014;2023-04-01T17:27:42;9.80;1.00
6756;DHT22;3415;51.148;7.014;2023-04-01T17:30:26;9.80;1.00
6756;DHT22;3415;51.148;7.014;2023-04-01T17:33:31;9.70;1.00
6756;DHT22;3415;51.148;7.014;2023-04-01T17:36:10;9.70;1.00
6756;DHT22;3415;51.148;7.014;2023-04-01T17:39:07;9.70;1.00
6756;DHT22;3415;51.148;7.014;2023-04-01T17:41:48;9.70;1.00
6756;DHT22;3415;51.148;7.014;2023-04-01T17:44:26;9.60;1.00
6756;DHT22;3415;51.148;7.014;2023-04-01T17:47:07;9.70;1.00
6756;DHT22;3415;51.148;7.014;2023-04-01T17:49:43;9.60;1.00
6756;DHT22;3415;51.148;7.014;2023-04-01T17:52:19;9.60;1.00
6756;DHT22;3415;51.148;7.014;2023-04-01T17:54:55;9.60;1.00
6756;DHT22;3415;51.148;7.014;2023-04-01T17:57:39;9.60;1.00
6756;DHT22;3415;51.148;7.014;2023-04-01T18:00:18;9.60;1.00
6756;DHT22;3415;51.148;7.014;2023-04-01T18:02:54;9.60;1.00
6756;DHT22;3415;51.148;7.014;2023-04-01T18:05:34;9.60;1.00
6756;DHT22;3415;51.148;7.014;2023-04-01T18:08:12;9.60;1.00
6756;DHT22;3415;51.148;7.014;2023-04-01T18:10:50;9.60;1.00
6756;DHT22;3415;51.148;7.014;2023-04-01T18:16:26;9.50;1.00
6756;DHT22;3415;51.148;7.014;2023-04-01T18:19:01;9.50;1.00
6756;DHT22;3415;51.148;7.014;2023-04-01T18:21:39;9.60;1.00
6756;DHT22;3415;51.148;7.014;2023-04-01T18:24:16;9.50;1.00
6756;DHT22;3415;51.148;7.014;2023-04-01T18:26:50;9.50;1.00
6756;DHT22;3415;51.148;7.014;2023-04-01T18:29:34;9.50;1.00
6756;DHT22;3415;51.148;7.014;2023-04-01T18:32:14;9.50;1.00
6756;DHT22;3415;51.148;7.014;2023-04-01T18:34:52;9.50;1.00
6756;DHT22;3415;51.148;7.014;2023-04-01T18:37:25;9.50;1.00
6756;DHT22;3415;51.148;7.014;2023-04-01T18:39:57;9.50;1.00
6756;DHT22;3415;51.148;7.014;2023-04-01T18:42:33;9.50;1.00
6756;DHT22;3415;51.148;7.014;2023-04-01T18:45:14;9.50;1.00
6756;DHT22;3415;51.148;7.014;2023-04-01T18:47:47;9.50;1.00
6756;DHT22;3415;51.148;7.014;2023-04-01T18:50:23;9.50;1.00
6756;DHT22;3415;51.148;7.014;2023-04-01T18:52:56;9.50;1.00